Karmel — 9HA2896 — position and weather

sailwx.info

Track history (hours):
 
Tides and Currents Weather Stations Pressure Air Temp Water Temp Dewpoint Dewpoint Depression Visibility Wind Speed Wind Dir Waves Ship Positions

Karmel

Last reported at 2015-Aug-01 03:07 UTC. Time now 2015-Aug-01 05:50 UTC.
Position N 55°40' E 015°33'.

Length 90 m; draft 5.5 m.

Type: Cargo ship. MMSI: 256632000.

Date/timePositionNaut miles runAvg speedWind from/ knotsBaromVisibWave heightAir tempDewpointWater temp
2015-Aug-01 03:07N 55°40' E 015°33'8 9.7
2015-Aug-01 02:15N 55°36' E 015°20'7 9.9
2015-Aug-01 01:33N 55°33' E 015°09'1010.1
2015-Aug-01 00:33N 55°28' E 014°54'1010.2
2015-Jul-31 23:33N 55°23' E 014°38'10 9.9
2015-Jul-31 22:33N 55°15' E 014°27'9 9.2
2015-Jul-31 21:33N 55°10' E 014°14'10 9.9
2015-Jul-31 20:33N 55°10' E 013°57'10 9.9
2015-Jul-31 19:33N 55°11' E 013°39'10 9.9
2015-Jul-31 18:31N 55°13' E 013°22'1110.1
2015-Jul-31 17:27N 55°14' E 013°03'910.2
2015-Jul-31 16:33N 55°16' E 012°47'8 8.2
2015-Jul-31 15:33N 55°23' E 012°39'1010.0
2015-Jul-31 14:33N 55°33' E 012°42'1010.3
2015-Jul-31 13:33N 55°43' E 012°41'1010.2
2015-Jul-31 12:33N 55°53' E 012°39'10 9.9
2015-Jul-31 11:34N 56°03' E 012°39'1111.0
2015-Jul-31 10:33N 56°10' E 012°23'1010.1
2015-Jul-31 09:32N 56°16' E 012°08'28 9.6
2015-Jul-31 06:33N 56°43' E 011°53'1010.4
2015-Jul-31 05:33N 56°53' E 011°47'2010.1
2015-Jul-31 03:33N 57°12' E 011°34'1110.5
2015-Jul-31 02:33N 57°22' E 011°28'1110.5
2015-Jul-31 01:33N 57°32' E 011°21'1010.3
2015-Jul-31 00:33N 57°42' E 011°17'1110.7
2015-Jul-30 23:33N 57°52' E 011°11'10 9.7
2015-Jul-30 22:33N 58°01' E 011°07'9 8.8
2015-Jul-30 21:34N 58°10' E 011°02'9 8.7
2015-Jul-30 20:34N 58°18' E 010°57'9 9.3
2015-Jul-30 19:33N 58°27' E 010°53'10 9.9
2015-Jul-30 18:33N 58°37' E 010°50'10 9.9
2015-Jul-30 17:33N 58°46' E 010°44'1010.1
2015-Jul-30 16:33N 58°56' E 010°39'10 9.8
2015-Jul-30 15:33N 59°06' E 010°33'10 9.8
2015-Jul-30 14:33N 59°15' E 010°35'1110.6
2015-Jul-30 13:33N 59°26' E 010°32'10 9.7
2015-Jul-30 12:33N 59°35' E 010°25'4 0.2
2015-Jul-29 11:26N 59°39' E 010°24'8 9.3
2015-Jul-29 10:33N 59°31' E 010°25'1010.3
2015-Jul-29 09:33N 59°21' E 010°33'1110.6
2015-Jul-29 08:33N 59°11' E 010°36'9 9.4
2015-Jul-29 07:33N 59°01' E 010°35'9 8.7
2015-Jul-29 06:33N 58°53' E 010°36'7 7.5
2015-Jul-29 05:33N 58°45' E 010°37'8 7.7
2015-Jul-29 04:33N 58°38' E 010°39'8 7.8
2015-Jul-29 03:33N 58°30' E 010°40'8 7.9
2015-Jul-29 02:33N 58°22' E 010°41'9 7.9
2015-Jul-29 01:25N 58°13' E 010°43'7 8.0
2015-Jul-29 00:33N 58°06' E 010°44'8 8.0
2015-Jul-28 23:33N 57°58' E 010°45'8 7.9
2015-Jul-28 22:33N 57°50' E 010°46'49 8.2
2015-Jul-28 16:30N 57°01' E 010°33'7 7.3
2015-Jul-28 15:32N 56°58' E 010°22'9 8.8
2015-Jul-28 14:33N 57°02' E 010°08'7 6.7
2015-Jul-28 13:33N 57°03' E 009°56'0 0.0
2015-Jul-28 12:33N 57°03' E 009°56'0 0.0
2015-Jul-28 11:33N 57°03' E 009°56'0 0.0
2015-Jul-28 10:33N 57°03' E 009°56'0 0.0
2015-Jul-28 09:32N 57°03' E 009°56'0 0.0
2015-Jul-28 08:32N 57°03' E 009°56'0 0.0
2015-Jul-28 07:25N 57°03' E 009°56'0 0.0
2015-Jul-28 06:31N 57°03' E 009°56'0 0.0
2015-Jul-28 05:31N 57°03' E 009°56'0 0.0
2015-Jul-28 04:31N 57°03' E 009°56'0 0.0
2015-Jul-28 03:31N 57°03' E 009°56'0 0.0
2015-Jul-28 02:31N 57°03' E 009°56'0 0.0
2015-Jul-28 01:31N 57°03' E 009°56'0 0.0
2015-Jul-28 00:31N 57°03' E 009°56'0 0.0
2015-Jul-27 23:31N 57°03' E 009°56'0 0.0
2015-Jul-27 22:31N 57°03' E 009°56'0 0.0
2015-Jul-27 21:28N 57°03' E 009°56'0 0.0
2015-Jul-27 20:31N 57°03' E 009°56'0 0.0
2015-Jul-27 19:31N 57°03' E 009°56'0 0.0
2015-Jul-27 18:31N 57°03' E 009°56'0 0.0
2015-Jul-27 17:31N 57°03' E 009°56'0 0.0
2015-Jul-27 16:31N 57°03' E 009°56'0 0.0
2015-Jul-27 15:31N 57°03' E 009°56'0 0.0
2015-Jul-27 14:31N 57°03' E 009°56'0 0.0
2015-Jul-27 13:31N 57°03' E 009°56'0 0.0
2015-Jul-27 12:31N 57°03' E 009°56'0 0.0
2015-Jul-27 11:28N 57°03' E 009°56'0 0.0
2015-Jul-27 10:33N 57°03' E 009°56'0 0.0
2015-Jul-27 09:33N 57°03' E 009°56'0 0.0
2015-Jul-27 08:33N 57°03' E 009°56'0 0.0
2015-Jul-27 07:33N 57°03' E 009°56'0 0.0
2015-Jul-27 06:33N 57°03' E 009°56'0 0.0
2015-Jul-27 05:33N 57°03' E 009°56'0 0.0
2015-Jul-27 04:33N 57°03' E 009°56'0 0.0
2015-Jul-27 03:33N 57°03' E 009°56'0 0.0
2015-Jul-27 02:32N 57°03' E 009°56'0 0.0
2015-Jul-27 01:32N 57°03' E 009°56'0 0.0
2015-Jul-27 00:29N 57°03' E 009°56'0 0.0
2015-Jul-26 23:29N 57°03' E 009°56'0 0.0
2015-Jul-26 22:32N 57°03' E 009°56'0 0.0
2015-Jul-26 21:33N 57°03' E 009°56'0 0.0
2015-Jul-26 20:33N 57°03' E 009°56'0 0.0
2015-Jul-26 19:33N 57°03' E 009°56'0 0.0
2015-Jul-26 18:31N 57°03' E 009°56'0 0.0
2015-Jul-26 17:31N 57°03' E 009°56'2 2.3
2015-Jul-26 16:33N 57°05' E 009°59'8 8.3
2015-Jul-26 15:33N 56°60' E 010°11'9 8.4
2015-Jul-26 14:31N 56°57' E 010°26'69 7.7
2015-Jul-26 05:31N 56°17' E 012°08'8 8.1
2015-Jul-26 04:33N 56°12' E 012°20'9 9.4
2015-Jul-26 03:33N 56°07' E 012°33'1110.6
2015-Jul-26 02:33N 55°58' E 012°43'1110.7
2015-Jul-26 01:34N 55°47' E 012°42'1110.7
2015-Jul-26 00:33N 55°36' E 012°42'1010.5
2015-Jul-25 23:33N 55°26' E 012°42'11 8.5
2015-Jul-25 22:18N 55°16' E 012°51'28 9.9
2015-Jul-25 19:26N 55°15' E 013°40'9 9.7
2015-Jul-25 18:33N 55°14' E 013°55'10 9.8
2015-Jul-25 17:33N 55°14' E 014°12'9 9.5
2015-Jul-25 16:33N 55°20' E 014°25'9 9.4
2015-Jul-25 15:33N 55°27' E 014°37'10 9.6
2015-Jul-25 14:33N 55°30' E 014°52'9 8.8
2015-Jul-25 13:33N 55°33' E 015°07'9 9.2
2015-Jul-25 12:33N 55°35' E 015°23'9010.0
2015-Jul-25 03:33N 56°01' E 017°57'1010.3
2015-Jul-25 02:33N 56°05' E 018°14'1010.3
2015-Jul-25 01:33N 56°07' E 018°32'  
Track history (hours):
 
Tides and Currents Weather Stations Pressure Air Temp Water Temp Dewpoint Dewpoint Depression Visibility Wind Speed Wind Dir Waves Ship Positions

Karmel

Last reported at 2015-Aug-01 03:07 UTC. Time now 2015-Aug-01 05:50 UTC.
Position N 55°40' E 015°33'.

Length 90 m; draft 5.5 m.

Type: Cargo ship. MMSI: 256632000.

Date/timePositionNaut miles runAvg speedWind from/ knotsBaromVisibWave heightAir tempDewpointWater temp
2015-Aug-01 03:07N 55°40' E 015°33'8 9.7
2015-Aug-01 02:15N 55°36' E 015°20'7 9.9
2015-Aug-01 01:33N 55°33' E 015°09'1010.1
2015-Aug-01 00:33N 55°28' E 014°54'1010.2
2015-Jul-31 23:33N 55°23' E 014°38'10 9.9
2015-Jul-31 22:33N 55°15' E 014°27'9 9.2
2015-Jul-31 21:33N 55°10' E 014°14'10 9.9
2015-Jul-31 20:33N 55°10' E 013°57'10 9.9
2015-Jul-31 19:33N 55°11' E 013°39'10 9.9
2015-Jul-31 18:31N 55°13' E 013°22'1110.1
2015-Jul-31 17:27N 55°14' E 013°03'910.2
2015-Jul-31 16:33N 55°16' E 012°47'8 8.2
2015-Jul-31 15:33N 55°23' E 012°39'1010.0
2015-Jul-31 14:33N 55°33' E 012°42'1010.3
2015-Jul-31 13:33N 55°43' E 012°41'1010.2
2015-Jul-31 12:33N 55°53' E 012°39'10 9.9
2015-Jul-31 11:34N 56°03' E 012°39'1111.0
2015-Jul-31 10:33N 56°10' E 012°23'1010.1
2015-Jul-31 09:32N 56°16' E 012°08'28 9.6
2015-Jul-31 06:33N 56°43' E 011°53'1010.4
2015-Jul-31 05:33N 56°53' E 011°47'2010.1
2015-Jul-31 03:33N 57°12' E 011°34'1110.5
2015-Jul-31 02:33N 57°22' E 011°28'1110.5
2015-Jul-31 01:33N 57°32' E 011°21'1010.3
2015-Jul-31 00:33N 57°42' E 011°17'1110.7
2015-Jul-30 23:33N 57°52' E 011°11'10 9.7
2015-Jul-30 22:33N 58°01' E 011°07'9 8.8
2015-Jul-30 21:34N 58°10' E 011°02'9 8.7
2015-Jul-30 20:34N 58°18' E 010°57'9 9.3
2015-Jul-30 19:33N 58°27' E 010°53'10 9.9
2015-Jul-30 18:33N 58°37' E 010°50'10 9.9
2015-Jul-30 17:33N 58°46' E 010°44'1010.1
2015-Jul-30 16:33N 58°56' E 010°39'10 9.8
2015-Jul-30 15:33N 59°06' E 010°33'10 9.8
2015-Jul-30 14:33N 59°15' E 010°35'1110.6
2015-Jul-30 13:33N 59°26' E 010°32'10 9.7
2015-Jul-30 12:33N 59°35' E 010°25'4 0.2
2015-Jul-29 11:26N 59°39' E 010°24'8 9.3
2015-Jul-29 10:33N 59°31' E 010°25'1010.3
2015-Jul-29 09:33N 59°21' E 010°33'1110.6
2015-Jul-29 08:33N 59°11' E 010°36'9 9.4
2015-Jul-29 07:33N 59°01' E 010°35'9 8.7
2015-Jul-29 06:33N 58°53' E 010°36'7 7.5
2015-Jul-29 05:33N 58°45' E 010°37'8 7.7
2015-Jul-29 04:33N 58°38' E 010°39'8 7.8
2015-Jul-29 03:33N 58°30' E 010°40'8 7.9
2015-Jul-29 02:33N 58°22' E 010°41'9 7.9
2015-Jul-29 01:25N 58°13' E 010°43'7 8.0
2015-Jul-29 00:33N 58°06' E 010°44'8 8.0
2015-Jul-28 23:33N 57°58' E 010°45'8 7.9
2015-Jul-28 22:33N 57°50' E 010°46'49 8.2
2015-Jul-28 16:30N 57°01' E 010°33'7 7.3
2015-Jul-28 15:32N 56°58' E 010°22'9 8.8
2015-Jul-28 14:33N 57°02' E 010°08'7 6.7
2015-Jul-28 13:33N 57°03' E 009°56'0 0.0
2015-Jul-28 12:33N 57°03' E 009°56'0 0.0
2015-Jul-28 11:33N 57°03' E 009°56'0 0.0
2015-Jul-28 10:33N 57°03' E 009°56'0 0.0
2015-Jul-28 09:32N 57°03' E 009°56'0 0.0
2015-Jul-28 08:32N 57°03' E 009°56'0 0.0
2015-Jul-28 07:25N 57°03' E 009°56'0 0.0
2015-Jul-28 06:31N 57°03' E 009°56'0 0.0
2015-Jul-28 05:31N 57°03' E 009°56'0 0.0
2015-Jul-28 04:31N 57°03' E 009°56'0 0.0
2015-Jul-28 03:31N 57°03' E 009°56'0 0.0
2015-Jul-28 02:31N 57°03' E 009°56'0 0.0
2015-Jul-28 01:31N 57°03' E 009°56'0 0.0
2015-Jul-28 00:31N 57°03' E 009°56'0 0.0
2015-Jul-27 23:31N 57°03' E 009°56'0 0.0
2015-Jul-27 22:31N 57°03' E 009°56'0 0.0
2015-Jul-27 21:28N 57°03' E 009°56'0 0.0
2015-Jul-27 20:31N 57°03' E 009°56'0 0.0
2015-Jul-27 19:31N 57°03' E 009°56'0 0.0
2015-Jul-27 18:31N 57°03' E 009°56'0 0.0
2015-Jul-27 17:31N 57°03' E 009°56'0 0.0
2015-Jul-27 16:31N 57°03' E 009°56'0 0.0
2015-Jul-27 15:31N 57°03' E 009°56'0 0.0
2015-Jul-27 14:31N 57°03' E 009°56'0 0.0
2015-Jul-27 13:31N 57°03' E 009°56'0 0.0
2015-Jul-27 12:31N 57°03' E 009°56'0 0.0
2015-Jul-27 11:28N 57°03' E 009°56'0 0.0
2015-Jul-27 10:33N 57°03' E 009°56'0 0.0
2015-Jul-27 09:33N 57°03' E 009°56'0 0.0
2015-Jul-27 08:33N 57°03' E 009°56'0 0.0
2015-Jul-27 07:33N 57°03' E 009°56'0 0.0
2015-Jul-27 06:33N 57°03' E 009°56'0 0.0
2015-Jul-27 05:33N 57°03' E 009°56'0 0.0
2015-Jul-27 04:33N 57°03' E 009°56'0 0.0
2015-Jul-27 03:33N 57°03' E 009°56'0 0.0
2015-Jul-27 02:32N 57°03' E 009°56'0 0.0
2015-Jul-27 01:32N 57°03' E 009°56'0 0.0
2015-Jul-27 00:29N 57°03' E 009°56'0 0.0
2015-Jul-26 23:29N 57°03' E 009°56'0 0.0
2015-Jul-26 22:32N 57°03' E 009°56'0 0.0
2015-Jul-26 21:33N 57°03' E 009°56'0 0.0
2015-Jul-26 20:33N 57°03' E 009°56'0 0.0
2015-Jul-26 19:33N 57°03' E 009°56'0 0.0
2015-Jul-26 18:31N 57°03' E 009°56'0 0.0
2015-Jul-26 17:31N 57°03' E 009°56'2 2.3
2015-Jul-26 16:33N 57°05' E 009°59'8 8.3
2015-Jul-26 15:33N 56°60' E 010°11'9 8.4
2015-Jul-26 14:31N 56°57' E 010°26'69 7.7
2015-Jul-26 05:31N 56°17' E 012°08'8 8.1
2015-Jul-26 04:33N 56°12' E 012°20'9 9.4
2015-Jul-26 03:33N 56°07' E 012°33'1110.6
2015-Jul-26 02:33N 55°58' E 012°43'1110.7
2015-Jul-26 01:34N 55°47' E 012°42'1110.7
2015-Jul-26 00:33N 55°36' E 012°42'1010.5
2015-Jul-25 23:33N 55°26' E 012°42'11 8.5
2015-Jul-25 22:18N 55°16' E 012°51'28 9.9
2015-Jul-25 19:26N 55°15' E 013°40'9 9.7
2015-Jul-25 18:33N 55°14' E 013°55'10 9.8
2015-Jul-25 17:33N 55°14' E 014°12'9 9.5
2015-Jul-25 16:33N 55°20' E 014°25'9 9.4
2015-Jul-25 15:33N 55°27' E 014°37'10 9.6
2015-Jul-25 14:33N 55°30' E 014°52'9 8.8
2015-Jul-25 13:33N 55°33' E 015°07'9 9.2
2015-Jul-25 12:33N 55°35' E 015°23'9010.0
2015-Jul-25 03:33N 56°01' E 017°57'1010.3
2015-Jul-25 02:33N 56°05' E 018°14'1010.3
2015-Jul-25 01:33N 56°07' E 018°32'  

Dump ship's entire track history